Time;durP1;ratioP1;P1;durP2;ratioP2;P2;SDS_P1;SDS_P2;PMS_P1;PMS_P2;Temp;Humidity;BMP_temperature;BMP_pressure;BME280_temperature;BME280_humidity;BME280_pressure;Samples;Min_cycle;Max_cycle;Signal;HPM_P1;HPM_P2
2022/01/21 00:01:18;;;;;;;6.10;3.53;;;1.10;99.90;;;;;;4885819;29;20227;-74
2022/01/21 00:03:45;;;;;;;8.15;3.80;;;1.10;99.90;;;;;;4896119;29;20199;-75
2022/01/21 00:06:12;;;;;;;11.68;4.32;;;1.10;99.90;;;;;;4891424;29;20214;-74
2022/01/21 00:08:45;;;;;;;7.80;3.92;;;1.10;99.90;;;;;;4883214;29;20282;-75
2022/01/21 00:11:13;;;;;;;5.90;3.60;;;1.10;99.90;;;;;;4892179;29;20610;-74
2022/01/21 00:13:41;;;;;;;5.30;3.25;;;1.10;99.90;;;;;;4886040;29;20203;-75
2022/01/21 00:16:10;;;;;;;6.97;3.63;;;1.00;99.90;;;;;;4880973;29;20286;-76
2022/01/21 00:18:40;;;;;;;5.80;3.00;;;1.00;99.90;;;;;;4880426;29;20215;-74
2022/01/21 00:32:08;;;;;;;4.43;3.38;;;1.20;99.90;;;;;;4896364;29;20230;-74
2022/01/21 00:34:36;;;;;;;6.70;3.85;;;1.20;99.90;;;;;;4891428;29;20558;-75
2022/01/21 00:37:04;;;;;;;11.20;3.80;;;1.30;99.90;;;;;;4896720;29;20660;-75
2022/01/21 00:39:34;;;;;;;5.85;3.40;;;1.30;99.90;;;;;;4893288;29;20763;-75
2022/01/21 00:42:08;;;;;;;4.63;3.20;;;1.30;99.90;;;;;;4895031;29;20666;-75
2022/01/21 00:44:36;;;;;;;5.40;3.00;;;1.30;99.90;;;;;;4892529;29;20220;-75
2022/01/21 00:47:04;;;;;;;6.00;3.72;;;1.30;99.90;;;;;;4881904;29;20213;-74
2022/01/21 00:49:31;;;;;;;7.43;4.03;;;1.40;99.90;;;;;;4879491;29;20570;-75
2022/01/21 00:51:59;;;;;;;6.22;2.97;;;1.40;99.90;;;;;;4892046;29;20254;-75
2022/01/21 00:54:26;;;;;;;5.78;3.20;;;1.50;99.90;;;;;;4891780;29;20203;-75
2022/01/21 00:56:53;;;;;;;8.23;3.20;;;1.50;99.90;;;;;;4888229;29;20231;-75
2022/01/21 00:59:20;;;;;;;5.35;2.90;;;1.50;99.90;;;;;;4890097;29;20346;-75
2022/01/21 01:01:47;;;;;;;8.40;3.80;;;1.50;99.90;;;;;;4892056;29;20235;-75
2022/01/21 01:04:14;;;;;;;6.78;3.17;;;1.50;99.90;;;;;;4893582;29;20226;-75
2022/01/21 01:06:41;;;;;;;7.18;3.30;;;1.50;99.90;;;;;;4890682;29;20206;-75
2022/01/21 01:09:10;;;;;;;6.40;3.05;;;1.50;99.90;;;;;;4881180;29;20218;-75
2022/01/21 01:11:45;;;;;;;5.55;2.70;;;1.50;99.90;;;;;;4892724;29;20658;-75
2022/01/21 01:19:59;;;;;;;6.53;3.40;;;1.50;99.90;;;;;;4891638;29;20246;-73
2022/01/21 01:22:35;;;;;;;3.92;3.08;;;1.60;99.90;;;;;;4892643;29;20237;-73
2022/01/21 01:27:49;;;;;;;10.93;3.20;;;1.60;99.90;;;;;;4893871;29;20208;-73
2022/01/21 01:30:19;;;;;;;5.93;3.50;;;1.60;99.90;;;;;;4890804;29;20214;-74
2022/01/21 01:32:48;;;;;;;7.90;3.75;;;1.60;99.90;;;;;;4883022;29;20254;-74
2022/01/21 01:35:18;;;;;;;9.55;4.03;;;1.60;99.90;;;;;;4883802;29;20199;-74
2022/01/21 01:38:09;;;;;;;5.25;3.00;;;1.60;99.90;;;;;;4887685;29;20195;-74
2022/01/21 01:40:42;;;;;;;4.13;3.30;;;1.60;99.90;;;;;;4889195;29;20695;-74
2022/01/21 01:51:29;;;;;;;7.63;3.00;;;1.50;99.90;;;;;;4884686;29;20254;-74
2022/01/21 01:54:01;;;;;;;5.50;2.85;;;1.50;99.90;;;;;;4891664;29;20203;-73
2022/01/21 01:56:34;;;;;;;7.32;3.00;;;1.50;99.90;;;;;;4893025;29;20203;-74
2022/01/21 01:59:01;;;;;;;5.35;3.08;;;1.50;99.90;;;;;;4891079;29;20586;-74
2022/01/21 02:01:28;;;;;;;5.40;3.42;;;1.50;99.90;;;;;;4892650;29;20230;-74
2022/01/21 02:03:55;;;;;;;5.57;3.20;;;1.60;99.90;;;;;;4881232;29;20207;-74
2022/01/21 02:06:23;;;;;;;6.90;3.20;;;1.60;99.90;;;;;;4878717;29;20203;-75
2022/01/21 02:08:50;;;;;;;6.25;3.60;;;1.60;99.90;;;;;;4877682;29;20239;-74
2022/01/21 02:11:17;;;;;;;6.18;3.60;;;1.60;99.90;;;;;;4885430;29;20305;-74
2022/01/21 02:13:49;;;;;;;6.22;3.28;;;1.60;99.90;;;;;;4888018;29;20234;-75
2022/01/21 02:16:33;;;;;;;5.20;3.30;;;1.60;99.90;;;;;;4888609;29;20647;-74
2022/01/21 02:21:47;;;;;;;6.85;3.97;;;1.60;99.90;;;;;;4882479;29;20650;-74
2022/01/21 02:24:20;;;;;;;7.88;3.13;;;1.60;99.90;;;;;;4885452;29;20198;-75
2022/01/21 02:26:48;;;;;;;8.43;3.35;;;1.60;99.90;;;;;;4894985;29;20211;-75
2022/01/21 02:29:27;;;;;;;6.40;3.25;;;1.50;99.90;;;;;;4877686;29;20230;-74
2022/01/21 02:31:55;;;;;;;6.95;2.80;;;1.50;99.90;;;;;;4888819;29;20230;-75
2022/01/21 02:34:22;;;;;;;7.40;3.03;;;1.40;99.90;;;;;;4879448;29;20200;-74
2022/01/21 02:36:51;;;;;;;6.93;3.28;;;1.40;99.90;;;;;;4884805;29;20207;-74
2022/01/21 02:39:18;;;;;;;7.10;3.60;;;1.40;99.90;;;;;;4884457;29;20234;-74
2022/01/21 02:41:45;;;;;;;6.68;3.53;;;1.30;99.90;;;;;;4885315;29;20241;-74
2022/01/21 02:44:15;;;;;;;7.25;3.97;;;1.30;99.90;;;;;;4882632;29;20668;-74
2022/01/21 02:46:45;;;;;;;8.45;3.88;;;1.30;99.90;;;;;;4877412;29;20628;-74
2022/01/21 02:49:12;;;;;;;6.68;3.22;;;1.30;99.90;;;;;;4890774;29;20225;-74
2022/01/21 02:51:39;;;;;;;12.90;3.58;;;1.20;99.90;;;;;;4890941;29;20333;-74
2022/01/21 02:54:08;;;;;;;7.40;3.50;;;1.30;99.90;;;;;;4890920;29;20194;-74
2022/01/21 02:56:37;;;;;;;5.90;3.70;;;1.30;99.90;;;;;;4883150;29;20303;-74
2022/01/21 02:59:05;;;;;;;5.18;3.00;;;1.40;99.90;;;;;;4877558;29;20227;-74
2022/01/21 03:01:33;;;;;;;7.22;3.78;;;1.40;99.90;;;;;;4882763;29;20695;-74
2022/01/21 03:04:01;;;;;;;5.32;3.25;;;1.40;99.90;;;;;;4891321;29;20210;-74
2022/01/21 03:06:28;;;;;;;6.70;3.55;;;1.40;99.90;;;;;;4883655;29;20668;-74
2022/01/21 03:08:57;;;;;;;5.43;3.60;;;1.50;99.90;;;;;;4892690;29;20299;-74
2022/01/21 03:11:27;;;;;;;8.60;3.13;;;1.50;99.90;;;;;;4882067;29;20254;-74
2022/01/21 03:13:54;;;;;;;7.78;3.60;;;1.50;99.90;;;;;;4877832;29;20909;-74
2022/01/21 03:16:21;;;;;;;9.52;3.75;;;1.50;99.90;;;;;;4876857;29;20200;-74
2022/01/21 03:18:49;;;;;;;3.60;3.20;;;1.50;99.90;;;;;;4889118;29;20208;-74
2022/01/21 03:21:18;;;;;;;7.90;3.60;;;1.60;99.90;;;;;;4890679;29;20230;-74
2022/01/21 03:23:47;;;;;;;7.72;3.63;;;1.60;99.90;;;;;;4879322;29;20239;-74
2022/01/21 03:26:16;;;;;;;8.80;3.83;;;1.50;99.90;;;;;;4879854;29;20294;-74
2022/01/21 03:28:46;;;;;;;6.80;3.40;;;1.50;99.90;;;;;;4881253;29;20230;-74
2022/01/21 03:31:14;;;;;;;10.10;3.35;;;1.40;99.90;;;;;;4883891;29;20225;-74
2022/01/21 03:33:42;;;;;;;6.35;3.15;;;1.40;99.90;;;;;;4887828;29;20195;-74
2022/01/21 03:36:10;;;;;;;6.03;3.03;;;1.30;99.90;;;;;;4877146;29;20298;-74
2022/01/21 03:38:37;;;;;;;8.85;3.50;;;1.20;99.90;;;;;;4884105;29;20205;-74
2022/01/21 03:41:06;;;;;;;9.05;3.80;;;1.20;99.90;;;;;;4877189;29;20711;-75
2022/01/21 03:43:33;;;;;;;5.65;3.25;;;1.10;99.90;;;;;;4880237;29;20690;-75
2022/01/21 03:46:02;;;;;;;7.80;4.20;;;1.10;99.90;;;;;;4887281;29;20285;-74
2022/01/21 03:48:29;;;;;;;5.43;3.20;;;1.00;99.90;;;;;;4889293;29;20214;-74
2022/01/21 03:50:57;;;;;;;4.47;3.35;;;1.00;99.90;;;;;;4882294;29;20261;-74
2022/01/21 03:53:24;;;;;;;5.03;3.67;;;1.00;99.90;;;;;;4894066;29;20206;-74
2022/01/21 03:55:51;;;;;;;8.18;4.38;;;1.00;99.90;;;;;;4888578;29;20638;-74
2022/01/21 03:58:18;;;;;;;7.88;3.85;;;1.00;99.90;;;;;;4890949;29;20290;-74
2022/01/21 04:00:47;;;;;;;5.88;3.47;;;1.00;99.90;;;;;;4886425;29;20241;-74
2022/01/21 04:03:16;;;;;;;10.10;3.67;;;1.00;99.90;;;;;;4878382;29;20289;-74
2022/01/21 04:05:43;;;;;;;5.88;3.70;;;1.00;99.90;;;;;;4880604;29;20257;-74
2022/01/21 04:08:11;;;;;;;5.03;3.58;;;0.90;99.90;;;;;;4883284;29;20646;-74
2022/01/21 04:10:41;;;;;;;8.70;3.83;;;0.90;99.90;;;;;;4898146;29;20694;-74
2022/01/21 04:13:14;;;;;;;7.10;4.20;;;0.90;99.90;;;;;;4897488;29;20222;-74
2022/01/21 04:15:42;;;;;;;4.97;4.05;;;0.90;99.90;;;;;;4883863;29;20226;-74
2022/01/21 04:18:09;;;;;;;7.43;4.00;;;0.90;99.90;;;;;;4895415;29;20718;-74
2022/01/21 04:20:38;;;;;;;8.48;4.45;;;0.90;99.90;;;;;;4882253;29;20613;-74
2022/01/21 04:23:05;;;;;;;5.20;4.05;;;0.90;99.90;;;;;;4894732;29;20222;-74
2022/01/21 04:25:32;;;;;;;4.50;3.80;;;0.90;99.90;;;;;;4912427;29;20740;-74
2022/01/21 04:28:00;;;;;;;10.27;3.70;;;0.90;99.90;;;;;;4897226;29;20202;-74
2022/01/21 04:30:27;;;;;;;6.75;4.78;;;0.80;99.90;;;;;;4881669;29;20318;-74
2022/01/21 04:32:54;;;;;;;9.73;4.57;;;0.80;99.90;;;;;;4886127;29;20230;-73
2022/01/21 04:35:21;;;;;;;8.38;4.72;;;0.80;99.90;;;;;;4881245;29;20305;-74
2022/01/21 04:37:54;;;;;;;14.45;5.22;;;0.70;99.90;;;;;;4878903;29;20255;-73
2022/01/21 04:40:25;;;;;;;8.32;4.85;;;0.70;99.90;;;;;;4892918;29;20618;-73
2022/01/21 04:48:21;;;;;;;5.57;4.75;;;0.70;99.90;;;;;;4892674;29;20199;-73
2022/01/21 04:50:57;;;;;;;5.80;4.03;;;0.70;99.90;;;;;;4886998;29;20590;-74
2022/01/21 04:53:28;;;;;;;11.63;4.57;;;0.70;99.90;;;;;;4890007;29;20531;-73
2022/01/21 04:55:55;;;;;;;6.80;4.50;;;0.60;99.90;;;;;;4882601;29;20203;-73
2022/01/21 04:58:22;;;;;;;10.10;4.90;;;0.60;99.90;;;;;;4898385;29;20354;-75
2022/01/21 05:00:49;;;;;;;8.70;4.28;;;0.60;99.90;;;;;;4891219;29;20234;-73
2022/01/21 05:03:17;;;;;;;8.88;4.50;;;0.60;99.90;;;;;;4880203;29;20203;-74
2022/01/21 05:05:44;;;;;;;10.55;4.38;;;0.70;99.90;;;;;;4881577;29;20206;-73
2022/01/21 05:08:22;;;;;;;9.45;4.68;;;0.80;99.90;;;;;;4879343;29;20203;-74
2022/01/21 05:10:50;;;;;;;11.13;4.82;;;0.80;99.90;;;;;;4887167;29;20298;-73
2022/01/21 05:13:22;;;;;;;7.72;4.40;;;0.80;99.90;;;;;;4886621;29;20561;-73
2022/01/21 05:16:01;;;;;;;9.35;5.45;;;0.80;99.90;;;;;;4898190;29;20202;-74
2022/01/21 05:18:29;;;;;;;10.05;4.53;;;0.80;99.90;;;;;;4896021;29;20203;-73
2022/01/21 05:20:56;;;;;;;9.43;4.38;;;0.80;99.90;;;;;;4888593;29;20629;-73
2022/01/21 05:23:24;;;;;;;7.85;4.32;;;0.90;99.90;;;;;;4892164;29;20278;-74
2022/01/21 05:25:52;;;;;;;6.50;3.70;;;0.90;99.90;;;;;;4883922;29;20206;-74
2022/01/21 05:28:19;;;;;;;6.82;3.58;;;0.90;99.90;;;;;;4897419;29;20215;-74
2022/01/21 05:30:46;;;;;;;12.60;4.25;;;0.90;99.90;;;;;;4895304;29;20230;-73
2022/01/21 05:33:13;;;;;;;8.80;3.67;;;0.90;99.90;;;;;;4878609;29;20727;-73
2022/01/21 05:35:40;;;;;;;7.22;4.30;;;0.90;99.90;;;;;;4881733;29;20973;-73
2022/01/21 05:38:07;;;;;;;11.40;4.70;;;0.80;99.90;;;;;;4886591;29;20199;-73
2022/01/21 05:40:34;;;;;;;8.27;4.22;;;0.90;99.90;;;;;;4884508;29;20310;-74
2022/01/21 05:48:14;;;;;;;8.18;4.28;;;1.10;99.90;;;;;;4945801;28;20212;-76
2022/01/21 05:50:41;;;;;;;10.27;4.35;;;1.10;99.90;;;;;;4951669;28;20206;-75
2022/01/21 05:53:10;;;;;;;8.90;4.95;;;1.10;99.90;;;;;;4952434;28;20231;-75
2022/01/21 05:55:40;;;;;;;8.88;4.47;;;1.00;99.90;;;;;;4936788;29;20232;-75
2022/01/21 05:58:07;;;;;;;6.65;4.80;;;0.90;99.90;;;;;;4930921;29;20205;-75
2022/01/21 06:00:36;;;;;;;5.32;4.10;;;0.90;99.90;;;;;;4934778;29;20280;-75
2022/01/21 06:03:04;;;;;;;9.85;4.32;;;0.90;99.90;;;;;;4927867;29;20212;-74
2022/01/21 06:05:33;;;;;;;7.32;4.57;;;0.90;99.90;;;;;;4933717;28;20221;-73
2022/01/21 06:08:02;;;;;;;8.15;4.60;;;0.90;99.90;;;;;;4927863;29;20638;-76
2022/01/21 06:10:29;;;;;;;7.82;4.60;;;1.00;99.90;;;;;;4925784;29;20563;-74
2022/01/21 06:12:57;;;;;;;9.50;5.07;;;1.10;99.90;;;;;;4931778;29;20728;-74
2022/01/21 06:15:24;;;;;;;7.22;4.50;;;1.20;99.90;;;;;;4929693;29;20223;-75
2022/01/21 06:17:52;;;;;;;6.15;4.05;;;1.30;99.90;;;;;;4931844;29;20296;-75
2022/01/21 06:20:19;;;;;;;8.52;4.25;;;1.40;99.90;;;;;;4929095;29;20628;-75
2022/01/21 06:22:46;;;;;;;8.13;4.60;;;1.40;99.90;;;;;;4930364;29;20692;-75
2022/01/21 06:25:14;;;;;;;9.05;5.38;;;1.50;99.90;;;;;;4925400;29;20584;-79
2022/01/21 06:27:41;;;;;;;7.32;4.60;;;1.50;99.90;;;;;;4930981;29;20596;-76
2022/01/21 06:30:09;;;;;;;7.60;4.88;;;1.50;99.90;;;;;;4922227;29;20229;-74
2022/01/21 06:32:36;;;;;;;7.65;4.47;;;1.50;99.90;;;;;;4930999;29;20284;-81
2022/01/21 06:35:05;;;;;;;7.82;4.80;;;1.50;99.90;;;;;;4942514;28;20758;-81
2022/01/21 06:37:32;;;;;;;10.10;5.10;;;1.50;99.90;;;;;;4936009;29;20229;-74
2022/01/21 06:39:59;;;;;;;7.88;5.25;;;1.50;99.90;;;;;;4934336;29;20223;-75
2022/01/21 06:42:28;;;;;;;6.68;4.25;;;1.50;99.90;;;;;;4935328;29;20252;-74
2022/01/21 06:44:55;;;;;;;10.18;5.15;;;1.60;99.90;;;;;;4930118;29;20692;-75
2022/01/21 06:47:22;;;;;;;10.93;5.13;;;1.60;99.90;;;;;;4930046;29;20216;-74
2022/01/21 06:49:49;;;;;;;7.68;4.63;;;1.50;99.90;;;;;;4924768;29;20568;-74
2022/01/21 06:52:17;;;;;;;11.25;5.38;;;1.60;99.90;;;;;;4930463;29;20364;-74
2022/01/21 06:54:44;;;;;;;7.85;5.18;;;1.50;99.90;;;;;;4928014;29;20612;-74
2022/01/21 06:57:12;;;;;;;9.35;5.50;;;1.60;99.90;;;;;;4933057;29;20215;-74
2022/01/21 06:59:38;;;;;;;6.43;4.72;;;1.60;99.90;;;;;;4934243;29;20198;-80
2022/01/21 07:02:05;;;;;;;8.40;5.53;;;1.60;99.90;;;;;;4934129;29;20228;-75
2022/01/21 07:04:33;;;;;;;6.63;4.55;;;1.60;99.90;;;;;;4924460;29;20771;-75
2022/01/21 07:07:00;;;;;;;10.75;5.30;;;1.60;99.90;;;;;;4905557;29;20197;-75
2022/01/21 07:09:29;;;;;;;9.15;4.82;;;1.60;99.90;;;;;;4917963;29;20205;-75
2022/01/21 07:11:56;;;;;;;9.90;4.50;;;1.50;99.90;;;;;;4919868;29;20276;-75
2022/01/21 07:14:23;;;;;;;8.57;5.05;;;1.50;99.90;;;;;;4921660;29;20217;-75
2022/01/21 07:16:51;;;;;;;9.80;5.40;;;1.50;99.90;;;;;;4927899;29;20209;-75
2022/01/21 07:19:18;;;;;;;8.27;5.32;;;1.40;99.90;;;;;;4928528;29;20197;-74
2022/01/21 07:21:45;;;;;;;12.85;6.20;;;1.40;99.90;;;;;;4921295;29;20684;-74
2022/01/21 07:24:12;;;;;;;11.48;5.22;;;1.40;99.90;;;;;;4922618;29;20900;-75
2022/01/21 07:26:41;;;;;;;6.55;4.95;;;1.40;99.90;;;;;;4927686;29;20240;-74
2022/01/21 07:29:08;;;;;;;11.10;5.70;;;1.30;99.90;;;;;;4925940;29;20284;-75
2022/01/21 07:31:35;;;;;;;9.25;6.32;;;1.30;99.90;;;;;;4916900;29;20222;-74
2022/01/21 07:34:05;;;;;;;8.38;6.18;;;1.40;99.90;;;;;;4914678;29;20315;-74
2022/01/21 07:36:33;;;;;;;10.20;5.50;;;1.40;99.90;;;;;;4922920;29;20228;-73
2022/01/21 07:39:00;;;;;;;6.75;5.30;;;1.40;99.90;;;;;;4924270;29;20197;-74
2022/01/21 07:41:27;;;;;;;9.75;5.55;;;1.40;99.90;;;;;;4930427;29;20722;-74
2022/01/21 07:43:55;;;;;;;9.20;5.57;;;1.50;99.90;;;;;;4929514;29;20221;-74
2022/01/21 07:46:22;;;;;;;10.20;5.43;;;1.50;99.90;;;;;;4932841;29;20334;-74
2022/01/21 07:48:49;;;;;;;10.25;5.60;;;1.50;99.90;;;;;;4929427;29;20216;-74
2022/01/21 07:51:16;;;;;;;9.15;5.05;;;1.60;99.90;;;;;;4932797;29;20205;-74
2022/01/21 07:53:44;;;;;;;8.32;5.03;;;1.70;99.90;;;;;;4931376;29;20572;-74
2022/01/21 07:56:11;;;;;;;11.13;5.78;;;1.70;99.90;;;;;;4930521;29;20957;-75
2022/01/21 07:58:38;;;;;;;9.77;5.68;;;1.70;99.90;;;;;;4935905;29;20240;-73
2022/01/21 08:01:07;;;;;;;10.20;5.80;;;1.70;99.90;;;;;;4933611;29;20205;-75
2022/01/21 08:03:34;;;;;;;13.77;6.25;;;1.80;99.90;;;;;;4930744;29;20240;-74
2022/01/21 08:06:01;;;;;;;11.43;5.88;;;1.80;99.90;;;;;;4928563;29;20257;-75
2022/01/21 08:08:30;;;;;;;8.70;5.40;;;1.80;99.90;;;;;;4928818;29;20193;-75
2022/01/21 08:10:57;;;;;;;8.40;6.00;;;1.80;99.90;;;;;;4932792;29;20667;-77
2022/01/21 08:13:27;;;;;;;10.32;5.80;;;1.80;99.90;;;;;;4931798;29;20209;-75
2022/01/21 08:15:54;;;;;;;9.20;6.43;;;1.90;99.90;;;;;;4922386;29;20937;-74
2022/01/21 08:18:22;;;;;;;10.98;5.30;;;1.90;99.90;;;;;;4927210;29;20602;-74
2022/01/21 08:20:49;;;;;;;8.05;5.68;;;1.90;99.90;;;;;;4931830;29;20284;-73
2022/01/21 08:23:17;;;;;;;12.77;6.10;;;1.80;99.90;;;;;;4928919;29;20238;-74
2022/01/21 08:25:44;;;;;;;8.27;5.88;;;1.80;99.90;;;;;;4928025;29;20206;-74
2022/01/21 08:28:11;;;;;;;11.30;6.70;;;1.80;99.90;;;;;;4932452;29;20205;-74
2022/01/21 08:30:39;;;;;;;10.80;5.28;;;1.70;99.90;;;;;;4932192;29;20201;-73
2022/01/21 08:33:06;;;;;;;10.13;5.28;;;1.70;99.90;;;;;;4924872;29;20237;-74
2022/01/21 08:35:35;;;;;;;9.73;5.82;;;1.80;99.90;;;;;;4931032;29;20201;-75
2022/01/21 08:38:04;;;;;;;9.68;5.60;;;1.80;99.90;;;;;;4929548;29;20560;-74
2022/01/21 08:40:31;;;;;;;9.73;5.13;;;1.90;99.90;;;;;;4934561;29;20209;-74
2022/01/21 08:42:58;;;;;;;9.77;6.05;;;2.00;99.90;;;;;;4932825;29;20319;-74
2022/01/21 08:45:29;;;;;;;8.05;5.65;;;2.10;99.90;;;;;;4933274;29;20831;-74
2022/01/21 08:47:56;;;;;;;8.15;5.10;;;2.10;99.90;;;;;;4925350;29;20213;-74
2022/01/21 08:50:25;;;;;;;12.57;6.18;;;2.10;99.90;;;;;;4930916;29;20204;-73
2022/01/21 08:52:56;;;;;;;7.68;5.53;;;2.20;99.90;;;;;;4927273;29;20201;-74
2022/01/21 08:55:23;;;;;;;6.35;5.15;;;2.20;99.90;;;;;;4922983;29;20206;-74
2022/01/21 08:57:50;;;;;;;7.40;5.50;;;2.20;99.90;;;;;;4929706;29;20201;-75
2022/01/21 09:00:19;;;;;;;9.00;5.57;;;2.30;99.90;;;;;;4927122;29;20205;-75
2022/01/21 09:02:47;;;;;;;6.43;5.68;;;2.30;99.90;;;;;;4933528;29;20232;-75
2022/01/21 09:05:14;;;;;;;9.68;5.85;;;2.30;99.90;;;;;;4939942;29;20217;-75
2022/01/21 09:07:41;;;;;;;11.65;6.10;;;2.30;99.90;;;;;;4936977;29;20248;-76
2022/01/21 09:10:11;;;;;;;8.75;5.20;;;2.40;99.90;;;;;;4925860;29;20323;-75
2022/01/21 09:12:38;;;;;;;11.13;6.00;;;2.50;99.90;;;;;;4929724;29;20206;-75
2022/01/21 09:15:07;;;;;;;8.00;4.75;;;2.60;99.90;;;;;;4926235;29;20274;-75
2022/01/21 09:17:36;;;;;;;7.13;5.50;;;2.70;99.90;;;;;;4927346;29;20564;-75
2022/01/21 09:20:04;;;;;;;8.65;5.47;;;2.60;99.90;;;;;;4927208;29;20204;-74
2022/01/21 09:22:31;;;;;;;11.25;6.40;;;2.60;99.90;;;;;;4935517;29;20221;-76
2022/01/21 09:24:58;;;;;;;6.85;5.38;;;2.60;99.90;;;;;;4928666;29;20283;-75
2022/01/21 09:27:26;;;;;;;11.48;5.85;;;2.80;99.90;;;;;;4932076;29;20205;-76
2022/01/21 09:29:53;;;;;;;9.90;5.68;;;2.80;99.90;;;;;;4931892;29;20199;-75
2022/01/21 09:32:20;;;;;;;8.00;4.85;;;2.80;99.90;;;;;;4919515;29;20215;-75
2022/01/21 09:34:46;;;;;;;9.45;5.90;;;2.90;99.90;;;;;;4914761;29;20312;-76
2022/01/21 09:37:14;;;;;;;10.60;5.85;;;2.90;99.90;;;;;;4926385;29;20293;-75
2022/01/21 09:39:41;;;;;;;9.18;5.07;;;2.90;99.90;;;;;;4927528;29;20649;-76
2022/01/21 09:42:08;;;;;;;8.93;5.75;;;2.90;99.90;;;;;;4937086;29;20698;-76
2022/01/21 09:44:38;;;;;;;10.55;5.70;;;2.90;99.90;;;;;;4930102;28;20221;-75
2022/01/21 09:47:05;;;;;;;9.90;5.95;;;2.90;99.90;;;;;;4935680;29;20572;-76
2022/01/21 09:49:34;;;;;;;10.70;5.18;;;3.10;99.90;;;;;;4950345;29;20194;-75
2022/01/21 09:52:04;;;;;;;8.15;5.07;;;3.20;99.90;;;;;;4946896;29;20267;-75
2022/01/21 09:54:33;;;;;;;6.70;4.75;;;3.30;99.90;;;;;;4918530;29;20233;-75
2022/01/21 09:57:02;;;;;;;6.85;5.20;;;3.40;99.90;;;;;;4925614;29;20562;-76
2022/01/21 09:59:32;;;;;;;7.65;5.32;;;3.40;99.90;;;;;;4928775;29;20194;-75
2022/01/21 10:02:03;;;;;;;13.27;5.97;;;3.40;99.90;;;;;;4933866;29;20203;-76
2022/01/21 10:04:31;;;;;;;6.90;5.50;;;3.50;99.90;;;;;;4932376;29;20253;-74
2022/01/21 10:06:59;;;;;;;6.82;4.82;;;3.40;99.90;;;;;;4922233;29;20206;-76
2022/01/21 10:09:27;;;;;;;8.45;5.50;;;3.40;99.90;;;;;;4923166;29;20203;-74
2022/01/21 10:11:55;;;;;;;8.38;5.13;;;3.30;99.90;;;;;;4932604;29;20266;-75
2022/01/21 10:14:24;;;;;;;9.20;5.00;;;3.30;99.90;;;;;;4922781;29;20222;-75
2022/01/21 10:16:52;;;;;;;9.25;5.70;;;3.30;99.90;;;;;;4920977;29;20204;-75
2022/01/21 10:19:27;;;;;;;11.10;5.05;;;3.40;99.90;;;;;;4927380;29;20210;-74
2022/01/21 10:22:03;;;;;;;9.73;5.75;;;3.50;99.90;;;;;;4923173;29;20200;-77
2022/01/21 10:24:32;;;;;;;7.85;5.18;;;3.50;99.90;;;;;;4918962;28;20229;-76
2022/01/21 10:26:59;;;;;;;9.60;5.60;;;3.50;99.90;;;;;;4916949;29;20224;-74
2022/01/21 10:29:36;;;;;;;9.73;5.03;;;3.50;99.90;;;;;;4928183;29;20204;-74
2022/01/21 10:32:04;;;;;;;8.02;4.90;;;3.60;99.90;;;;;;4934474;29;20730;-74
2022/01/21 10:34:39;;;;;;;8.93;5.00;;;3.70;99.90;;;;;;4922707;29;20651;-74
2022/01/21 10:37:22;;;;;;;12.98;5.32;;;3.80;99.90;;;;;;4912569;29;20208;-74
2022/01/21 10:39:59;;;;;;;8.85;4.50;;;3.90;99.90;;;;;;4913474;29;20300;-77
2022/01/21 10:42:27;;;;;;;10.00;4.72;;;3.90;99.90;;;;;;4917319;29;20233;-74
2022/01/21 10:44:54;;;;;;;7.07;4.70;;;4.10;99.90;;;;;;4916322;29;20224;-74
2022/01/21 10:47:27;;;;;;;9.57;4.75;;;4.20;99.90;;;;;;4925847;29;20209;-76
2022/01/21 10:50:06;;;;;;;7.38;4.55;;;4.30;99.90;;;;;;4915826;29;20201;-75
2022/01/21 10:52:39;;;;;;;10.77;5.13;;;4.30;99.90;;;;;;4918630;29;20286;-73
2022/01/21 10:55:26;;;;;;;8.73;4.85;;;4.30;99.90;;;;;;4927254;29;20206;-75
2022/01/21 10:58:04;;;;;;;8.48;5.38;;;4.20;99.90;;;;;;4932195;29;20657;-76
2022/01/21 11:00:32;;;;;;;7.18;5.75;;;4.20;99.90;;;;;;4930736;29;20532;-74
2022/01/21 11:03:10;;;;;;;12.43;5.32;;;4.40;99.90;;;;;;4933723;28;20307;-74
2022/01/21 11:05:42;;;;;;;7.22;4.38;;;4.60;99.90;;;;;;4934692;29;20544;-74
2022/01/21 11:08:10;;;;;;;5.22;4.25;;;4.70;99.90;;;;;;4923699;29;20292;-75
2022/01/21 11:10:56;;;;;;;8.45;4.65;;;4.60;99.90;;;;;;4924609;29;20195;-74
2022/01/21 11:13:31;;;;;;;5.55;4.60;;;4.50;99.90;;;;;;4921970;28;20224;-74
2022/01/21 11:16:00;;;;;;;6.95;5.05;;;4.40;99.90;;;;;;4925426;29;20196;-74
2022/01/21 11:18:30;;;;;;;8.70;5.35;;;4.40;99.90;;;;;;4930159;29;20204;-76
2022/01/21 11:21:07;;;;;;;10.48;5.00;;;4.40;99.90;;;;;;4916108;29;20222;-75
2022/01/21 11:23:37;;;;;;;5.97;4.53;;;4.30;99.90;;;;;;4922229;29;20307;-70
2022/01/21 11:26:09;;;;;;;5.80;3.70;;;4.50;99.90;;;;;;4917461;29;20204;-76
2022/01/21 11:28:40;;;;;;;6.00;4.30;;;4.50;99.90;;;;;;4922347;29;20287;-76
2022/01/21 11:31:09;;;;;;;8.90;4.40;;;4.40;99.90;;;;;;4919424;29;20219;-75
2022/01/21 11:33:37;;;;;;;6.28;4.60;;;4.40;99.90;;;;;;4918530;29;20246;-76
2022/01/21 11:36:06;;;;;;;5.50;3.88;;;4.50;99.90;;;;;;4918509;29;20237;-76
2022/01/21 11:38:37;;;;;;;8.48;4.50;;;4.40;99.90;;;;;;4924832;29;20304;-75
2022/01/21 11:41:05;;;;;;;6.68;4.18;;;4.30;99.90;;;;;;4923418;29;20685;-77
2022/01/21 11:43:34;;;;;;;5.43;4.00;;;4.30;99.90;;;;;;4930642;29;20316;-76
2022/01/21 11:49:04;;;;;;;8.30;3.83;;;4.00;99.90;;;;;;4926925;29;20726;-79
2022/01/21 11:51:34;;;;;;;8.30;3.63;;;3.90;99.90;;;;;;4922368;29;20213;-77
2022/01/21 11:54:03;;;;;;;6.63;3.97;;;3.90;99.90;;;;;;4923934;29;20326;-77
2022/01/21 11:56:36;;;;;;;7.63;3.70;;;3.90;99.90;;;;;;4928884;29;20208;-76
2022/01/21 11:59:09;;;;;;;7.47;3.50;;;3.80;99.90;;;;;;4934501;29;20235;-76
2022/01/21 12:01:40;;;;;;;5.50;3.50;;;3.80;99.90;;;;;;4932380;29;20214;-76
2022/01/21 12:04:07;;;;;;;7.30;4.03;;;3.90;99.90;;;;;;4930173;29;20232;-76
2022/01/21 12:06:37;;;;;;;8.25;4.30;;;3.90;99.90;;;;;;4930606;29;20204;-76
2022/01/21 12:09:05;;;;;;;7.00;3.70;;;3.80;99.90;;;;;;4930027;29;20657;-76
2022/01/21 12:11:36;;;;;;;8.40;3.90;;;3.90;99.90;;;;;;4933755;29;20697;-76
2022/01/21 12:14:07;;;;;;;6.53;3.88;;;4.00;99.90;;;;;;4926863;29;20228;-76
2022/01/21 12:16:52;;;;;;;6.72;3.95;;;4.00;99.90;;;;;;4931859;29;20200;-76
2022/01/21 12:19:32;;;;;;;7.50;3.42;;;4.00;99.90;;;;;;4934098;29;20214;-76
2022/01/21 12:22:14;;;;;;;8.55;3.80;;;3.90;99.90;;;;;;4931126;29;20202;-75
2022/01/21 12:25:04;;;;;;;7.45;3.80;;;4.00;99.90;;;;;;4926733;29;20229;-76
2022/01/21 12:27:32;;;;;;;7.50;4.07;;;4.00;99.90;;;;;;4919983;29;20209;-75
2022/01/21 12:30:28;;;;;;;8.50;4.15;;;4.00;99.90;;;;;;4925751;29;20211;-75
2022/01/21 12:32:59;;;;;;;6.30;3.25;;;4.20;99.90;;;;;;4929104;29;20234;-76
2022/01/21 12:35:26;;;;;;;5.13;3.58;;;4.40;99.90;;;;;;4934396;29;20214;-75
2022/01/21 12:41:34;;;;;;;7.88;3.50;;;4.90;99.90;;;;;;4925773;29;20284;-76
2022/01/21 12:44:04;;;;;;;4.53;2.40;;;6.00;99.90;;;;;;4933090;29;20328;-76
2022/01/21 12:46:35;;;;;;;6.20;3.38;;;6.50;99.90;;;;;;4917385;29;20197;-75
2022/01/21 12:49:37;;;;;;;6.13;3.67;;;6.50;99.90;;;;;;4932243;29;20205;-78
2022/01/21 12:52:27;;;;;;;9.80;3.63;;;6.40;99.90;;;;;;4935153;29;20244;-86
2022/01/21 12:57:42;;;;;;;4.38;3.05;;;5.60;99.90;;;;;;4930536;29;20196;-78
2022/01/21 13:00:10;;;;;;;5.97;3.85;;;5.20;99.90;;;;;;4928779;29;20211;-78
2022/01/21 13:02:38;;;;;;;6.65;3.10;;;5.00;99.90;;;;;;4921718;29;20318;-78
2022/01/21 13:05:14;;;;;;;9.05;3.17;;;5.00;99.90;;;;;;4918662;29;20677;-78
2022/01/21 13:08:02;;;;;;;6.13;3.20;;;4.90;99.90;;;;;;4913844;29;20209;-78
2022/01/21 13:10:30;;;;;;;7.30;3.30;;;4.80;99.90;;;;;;4925440;29;20215;-78
2022/01/21 13:13:17;;;;;;;9.38;3.20;;;4.60;99.90;;;;;;4923458;29;20224;-78
2022/01/21 13:15:47;;;;;;;7.82;3.65;;;4.50;99.90;;;;;;4920014;29;20208;-78
2022/01/21 13:18:17;;;;;;;4.20;3.05;;;4.40;99.90;;;;;;4930447;29;20197;-78
2022/01/21 13:20:48;;;;;;;6.53;3.28;;;4.60;99.90;;;;;;4931933;29;20631;-78
2022/01/21 13:23:41;;;;;;;7.72;3.10;;;4.60;99.90;;;;;;4932388;29;20304;-78
2022/01/21 13:26:17;;;;;;;9.32;3.10;;;4.60;99.90;;;;;;4929994;29;20281;-78
2022/01/21 13:29:01;;;;;;;8.35;3.13;;;4.60;99.90;;;;;;4929733;29;20199;-78
2022/01/21 13:31:31;;;;;;;8.27;3.53;;;4.60;99.90;;;;;;4928588;29;20201;-77
2022/01/21 13:34:13;;;;;;;8.07;3.10;;;4.40;99.90;;;;;;4932748;29;20219;-78
2022/01/21 13:36:44;;;;;;;7.70;2.72;;;4.20;99.90;;;;;;4932027;29;20199;-79
2022/01/21 13:39:15;;;;;;;7.07;2.75;;;4.10;99.90;;;;;;4931168;29;20219;-78
2022/01/21 13:41:50;;;;;;;7.97;2.78;;;4.00;99.90;;;;;;4937342;29;20214;-78
2022/01/21 13:44:26;;;;;;;9.52;2.97;;;4.00;99.90;;;;;;4942156;29;20257;-78
2022/01/21 13:46:54;;;;;;;7.90;3.00;;;4.10;99.90;;;;;;4933929;29;20220;-78
2022/01/21 13:49:23;;;;;;;6.50;3.55;;;4.10;99.90;;;;;;4932254;29;20201;-78
2022/01/21 13:51:57;;;;;;;5.20;2.72;;;4.10;99.90;;;;;;4932343;29;20232;-78
2022/01/21 13:54:32;;;;;;;7.38;3.47;;;4.10;99.90;;;;;;4932085;29;20651;-78
2022/01/21 13:56:59;;;;;;;7.13;3.75;;;4.10;99.90;;;;;;4931953;29;20203;-77
2022/01/21 13:59:29;;;;;;;9.65;3.53;;;4.20;99.90;;;;;;4938505;29;20203;-78